Tivjaku, Russia
Current Conditions -  °F | °C
As of 3:30 PM on Thursday 23 Oct 2014 (Local Time) from UHHH Reporting Station
Few Clouds Few Clouds  
Wind Chill: 54°   Ceiling: Unl
Heat Index: 54°   Visibility: 4mi
Dew Point: 16°   Wind: 13mph
Humidity: 22%   Direction: 210°SSW
Pressure: 29.74"   Gusts: 20mph
Location:  48.6°N, 137.05°E
Report Text: UHHH 230530Z 21006G09MPS 6000 FEW200 12/M09 Q1007 NOSIG RMKQFE749/0999 23090060
Loading
Personal Weather Stations






























Interactive Weather Map
Tropical Storm Tracking
New forecast layout! Learn more

10-Day Weather Forecast

Advertisements
Track Severe Weather on mobile